Jumpertown, Mississippi
Current Conditions -  °F | °C
As of 6:15 AM on Monday 24 Nov 2014 (Local Time) from KCRX Reporting Station
Overcast Overcast  
Wind Chill: 15°   Ceiling: 4700
Heat Index: 15°   Visibility: 10mi
Dew Point:   Wind: 12mph
Humidity: 67%   Direction: 230°SW
Pressure: 29.65"   Gusts: 28mph
Location:  34.6741°N, 88.5234°W
Report Text: KCRX 241215Z AUTO 23010G24KT 10SM FEW031 FEW039 OVC047 15/09 A2965 RMK AO2
Loading
Personal Weather Stations






























Interactive Weather Map New forecast layout! Learn more

10-Day Weather Forecast

Advertisements
Track Severe Weather on mobile